Terminal Aerodrome Forecast
Issued by NWS

Home | Current Version | Previous Version | Graphics & Text | Print | Product List | Glossary On
Versions: 1 2 3 4 5 6 7 8 9 10 11 12 13 14 15 16 17 18 19 20 21 22 23 24
982
FTUS43 KGRB 151448 AAA
TAFCWA
TAF AMD
KCWA 151448Z 1515/1612 00000KT 1SM BR OVC003
      TEMPO 1515/1518 1/2SM FG OVC002
     FM151800 29010G22KT P6SM BKN012
     FM160000 30014G20KT P6SM -SN BKN020
     FM160800 31010KT P6SM BKN040=

USA.gov is the U.S. government's official web portal to all federal, state and local government web resources and services.